Terminal Aerodrome Forecast
Issued by NWS St Louis, MO

Home | Current Version | Previous Version | Text Only | Print | Product List | Glossary On
Versions: 1 2 3 4 5 6 7 8 9 10 11 12 13 14 15 16 17 18 19 20 21 22 23 24 25 26 27 28 29 30 31 32 33
111
FTUS43 KLSX 281730
TAFSTL
TAF
KSTL 281730Z 2818/2924 05004KT P6SM OVC015
     FM282000 02004KT P6SM OVC020
     FM290100 05005KT P6SM OVC035
     FM290800 07007KT P6SM BKN020
     FM291200 08009KT P6SM -SHRA OVC010
     FM291800 09009KT P6SM OVC008=

USA.gov is the U.S. government's official web portal to all federal, state and local government web resources and services.